Bookmark and Share
Track history (hours):
 

OOCL Long Beach

Last reported at 2014-Apr-22 12:33 UTC. Time now 2014-Apr-23 12:58 UTC.
Position N 33°45' W 118°13'.

Length 323 m; beam 42.8 m; draft 14.5 m.

Type: Cargo ship. MMSI: 477316000.

NotesDate/timePositionNaut miles runAvg speedWind from/ knotsBaromVisibWave heightAir tempDewpointWater temp
2014-Apr-22 12:33N 33°45' W 118°13'6 6.4
2014-Apr-22 11:33N 33°39' W 118°12'9 9.2
2014-Apr-22 10:33N 33°36' W 118°23'1110.6
2014-Apr-22 09:32N 33°37' W 118°36'1010.4
2014-Apr-22 08:33N 33°37' W 118°48'1010.1
2014-Apr-22 07:31N 33°38' W 119°00'1010.2
2014-Apr-22 06:33N 33°36' W 119°12'10 9.8
2014-Apr-22 05:33N 33°35' W 119°23'10 9.9
2014-Apr-22 04:33N 33°33' W 119°35'1010.0
2014-Apr-22 03:33N 33°31' W 119°47'10 9.9
2014-Apr-22 02:33N 33°29' W 119°59'10 9.9
2014-Apr-22 01:33N 33°29' W 120°10'10 9.8
2014-Apr-22 00:33N 33°30' W 120°22'10 9.7
2014-Apr-21 23:33N 33°31' W 120°34'10 9.6
2014-Apr-21 22:33N 33°36' W 120°44'10 9.7
2014-Apr-21 21:33N 33°40' W 120°54'9 9.4
2014-Apr-21 20:33N 33°44' W 121°04'10 9.7
2014-Apr-21 19:33N 33°49' W 121°15'1010.0
2014-Apr-21 18:33N 33°54' W 121°25'1010.1
2014-Apr-21 17:33N 33°58' W 121°36'1010.2
2014-Apr-21 16:33N 34°02' W 121°47'9 9.3
2014-Apr-21 15:34N 34°07' W 121°57'2019.8
2014-Apr-21 14:34N 34°16' W 122°19'1919.4
2014-Apr-21 13:34N 34°24' W 122°40'1919.4
2014-Apr-21 12:33N 34°33' W 123°01'2019.5
2014-Apr-21 11:33N 34°42' W 123°22'1919.3
2014-Apr-21 10:33N 34°51' W 123°43'2019.6
2014-Apr-21 09:33N 34°60' W 124°04'1919.5
2014-Apr-21 08:33N 35°09' W 124°25'1919.1
2014-Apr-21 07:34N 35°17' W 124°46'1919.3
2014-Apr-21 06:33N 35°26' W 125°07'1919.2
2014-Apr-21 05:33N 35°34' W 125°28'1919.2
2014-Apr-21 04:34N 35°43' W 125°49'2119.2
2014-Apr-21 03:30N 35°52' W 126°12'1819.2
2014-Apr-21 02:33N 36°01' W 126°32'2119.0
2014-Apr-21 01:29N 36°07' W 126°56'2119.4
2014-Apr-21 00:24N 36°14' W 127°21'19419.5
2014-Apr-20 14:27N 37°12' W 131°12'  

Dump ship's entire track history

sailing weather and tide predictions

OOCL Long Beach — VRYO4 — position and weather